Time;durP1;ratioP1;P1;durP2;ratioP2;P2;SDS_P1;SDS_P2;PMS_P1;PMS_P2;Temp;Humidity;BMP_temperature;BMP_pressure;BME280_temperature;BME280_humidity;BME280_pressure;Samples;Min_cycle;Max_cycle;Signal;HPM_P1;HPM_P2
2022/06/23 00:00:30;;;;;;;8.90;5.60;;;20.70;99.90;;;;;;5044095;28;20030;-81
2022/06/23 00:02:58;;;;;;;13.95;5.82;;;20.60;99.90;;;;;;5026641;28;20025;-81
2022/06/23 00:05:28;;;;;;;7.80;5.03;;;20.60;99.90;;;;;;5046888;28;20029;-83
2022/06/23 00:07:57;;;;;;;11.55;5.32;;;20.50;99.90;;;;;;5045388;28;20522;-83
2022/06/23 00:10:44;;;;;;;5.55;4.55;;;20.50;99.90;;;;;;5047265;28;20025;-82
2022/06/23 00:13:23;;;;;;;11.60;6.07;;;20.50;99.90;;;;;;5040952;28;20351;-81
2022/06/23 00:15:51;;;;;;;7.60;5.55;;;20.50;99.90;;;;;;5042758;28;20029;-81
2022/06/23 00:18:20;;;;;;;9.18;5.47;;;20.50;99.90;;;;;;5045827;28;20029;-81
2022/06/23 00:20:49;;;;;;;7.78;4.78;;;20.50;99.90;;;;;;5033441;28;20089;-83
2022/06/23 00:23:29;;;;;;;8.02;4.82;;;20.50;99.90;;;;;;5045804;28;20022;-82
2022/06/23 00:26:07;;;;;;;7.80;5.10;;;20.50;99.90;;;;;;5057404;28;20014;-80
2022/06/23 00:28:42;;;;;;;5.20;4.55;;;20.50;99.90;;;;;;5057327;28;20006;-80
2022/06/23 00:31:27;;;;;;;6.97;5.35;;;20.50;99.90;;;;;;5057047;28;20043;-81
2022/06/23 00:33:54;;;;;;;5.63;4.85;;;20.50;99.90;;;;;;5036403;28;20037;-81
2022/06/23 00:36:28;;;;;;;14.35;7.85;;;20.40;99.90;;;;;;5043048;28;20060;-82
2022/06/23 00:38:55;;;;;;;11.63;7.10;;;20.40;99.90;;;;;;5025441;28;20049;-82
2022/06/23 00:41:26;;;;;;;11.43;6.38;;;20.40;99.90;;;;;;5043562;28;20076;-83
2022/06/23 00:43:53;;;;;;;9.35;6.00;;;20.30;99.90;;;;;;5025438;28;20029;-83
2022/06/23 00:46:31;;;;;;;11.80;6.70;;;20.30;99.90;;;;;;5047264;28;20045;-81
2022/06/23 00:49:33;;;;;;;10.70;6.20;;;20.30;99.90;;;;;;5039212;28;20017;-83
2022/06/23 00:52:16;;;;;;;10.30;6.40;;;20.20;99.90;;;;;;5043388;28;20018;-81
2022/06/23 00:54:45;;;;;;;6.45;4.75;;;20.20;99.90;;;;;;5042419;28;20137;-83
2022/06/23 00:57:40;;;;;;;7.85;4.97;;;20.20;99.90;;;;;;5043343;28;20029;-83
2022/06/23 01:00:13;;;;;;;11.75;5.30;;;20.20;99.90;;;;;;5042949;28;20093;-81
2022/06/23 01:02:44;;;;;;;10.75;5.43;;;20.20;99.90;;;;;;5043834;28;20025;-82
2022/06/23 01:05:22;;;;;;;10.38;4.90;;;20.20;99.90;;;;;;5042974;28;20033;-83
2022/06/23 01:08:02;;;;;;;6.65;4.20;;;20.20;99.90;;;;;;5049852;28;20021;-80
2022/06/23 01:10:44;;;;;;;7.45;4.65;;;20.20;99.90;;;;;;5053282;28;20026;-80
2022/06/23 01:13:38;;;;;;;6.40;4.25;;;20.20;99.90;;;;;;5052606;28;20056;-81
2022/06/23 01:16:21;;;;;;;6.15;4.15;;;20.30;99.90;;;;;;5052591;28;20034;-80
2022/06/23 01:19:11;;;;;;;4.78;4.20;;;20.30;99.90;;;;;;5051886;28;20021;-80
2022/06/23 01:21:44;;;;;;;9.35;4.75;;;20.40;99.90;;;;;;5034593;28;20032;-81
2022/06/23 01:24:28;;;;;;;13.77;4.93;;;20.40;99.90;;;;;;5052325;28;20031;-80
2022/06/23 01:27:15;;;;;;;5.63;4.00;;;20.40;99.90;;;;;;5052325;28;20081;-82
2022/06/23 01:29:46;;;;;;;7.45;4.05;;;20.30;99.90;;;;;;5052565;28;20022;-82
2022/06/23 01:32:32;;;;;;;5.33;3.63;;;20.40;99.90;;;;;;5041237;28;20034;-80
2022/06/23 01:35:03;;;;;;;4.78;3.60;;;20.40;99.90;;;;;;5020743;28;20048;-82
2022/06/23 01:37:32;;;;;;;4.35;2.92;;;20.40;99.90;;;;;;5021422;28;20021;-83
2022/06/23 01:40:22;;;;;;;4.28;2.72;;;20.30;99.90;;;;;;5006771;28;20026;-81
2022/06/23 01:42:54;;;;;;;3.30;2.78;;;20.30;99.90;;;;;;5044463;28;20386;-81
2022/06/23 01:45:43;;;;;;;3.65;2.97;;;20.30;99.90;;;;;;5023715;28;20028;-82
2022/06/23 01:48:13;;;;;;;6.72;3.22;;;20.20;99.90;;;;;;5040601;28;20013;-81
2022/06/23 01:50:42;;;;;;;4.50;2.85;;;20.20;99.90;;;;;;5040624;28;20091;-82
2022/06/23 01:53:16;;;;;;;4.65;3.35;;;20.20;99.90;;;;;;5039779;28;20026;-82
2022/06/23 01:55:55;;;;;;;4.10;3.72;;;20.20;99.90;;;;;;5039903;28;20711;-83
2022/06/23 01:58:25;;;;;;;10.27;4.85;;;20.20;99.90;;;;;;5022137;28;20056;-82
2022/06/23 02:00:55;;;;;;;9.82;5.07;;;20.10;99.90;;;;;;5040170;28;20075;-82
2022/06/23 02:03:27;;;;;;;10.82;4.88;;;20.10;99.90;;;;;;5039140;28;20393;-80
2022/06/23 02:05:57;;;;;;;;;;;20.10;99.90;;;;;;5040500;28;20037;-83
2022/06/23 02:11:52;;;;;;;4.90;4.23;;;20.00;99.90;;;;;;5040677;28;20484;-80
2022/06/23 02:14:47;;;;;;;4.53;4.03;;;20.00;99.90;;;;;;5041773;28;20505;-80
2022/06/23 02:17:29;;;;;;;6.95;4.65;;;19.90;99.90;;;;;;5021394;28;20017;-83
2022/06/23 02:20:00;;;;;;;6.65;4.97;;;19.80;99.90;;;;;;5032679;28;20489;-83
2022/06/23 02:22:38;;;;;;;5.72;4.68;;;19.80;99.90;;;;;;5038240;28;20021;-82
2022/06/23 02:25:04;;;;;;;6.03;4.45;;;19.80;99.90;;;;;;5018979;28;20549;-82
2022/06/23 02:27:43;;;;;;;6.95;4.75;;;19.80;99.90;;;;;;5018171;28;20029;-82
2022/06/23 02:30:14;;;;;;;6.55;4.05;;;19.80;99.90;;;;;;5017696;28;20025;-81
2022/06/23 02:33:13;;;;;;;7.55;3.83;;;19.80;99.90;;;;;;5003706;28;20034;-83
2022/06/23 02:35:59;;;;;;;6.80;3.65;;;19.80;99.90;;;;;;5044792;28;20037;-82
2022/06/23 02:38:42;;;;;;;4.85;3.65;;;19.80;99.90;;;;;;5026919;28;20022;-82
2022/06/23 02:41:13;;;;;;;6.72;3.70;;;19.80;99.90;;;;;;5043758;28;20433;-82
2022/06/23 02:43:43;;;;;;;8.93;3.80;;;19.90;99.90;;;;;;5043330;28;20021;-81
2022/06/23 02:46:54;;;;;;;7.22;3.90;;;20.00;99.90;;;;;;5047049;28;20026;-82
2022/06/23 02:49:39;;;;;;;4.28;3.33;;;20.10;99.90;;;;;;5026870;28;20052;-83
2022/06/23 02:52:23;;;;;;;4.90;3.45;;;20.10;99.90;;;;;;5043737;28;20494;-82
2022/06/23 02:55:06;;;;;;;5.75;2.72;;;20.10;99.90;;;;;;5042192;28;20033;-83
2022/06/23 02:57:41;;;;;;;6.55;3.17;;;20.20;99.90;;;;;;5045704;28;20405;-83
2022/06/23 03:00:13;;;;;;;5.88;2.67;;;20.20;99.90;;;;;;5043420;28;20104;-82
2022/06/23 03:03:05;;;;;;;;;;;20.10;99.90;;;;;;5044055;28;20033;-81
2022/06/23 03:05:40;;;;;;;4.33;2.70;;;20.10;99.90;;;;;;5042931;28;19916;-83
2022/06/23 03:08:36;;;;;;;4.05;2.85;;;20.10;99.90;;;;;;5043708;28;20029;-83
2022/06/23 03:11:52;;;;;;;6.68;3.20;;;20.10;99.90;;;;;;5044666;28;20033;-81
2022/06/23 03:14:50;;;;;;;6.72;3.72;;;20.10;99.90;;;;;;5042866;28;20033;-82
2022/06/23 03:17:34;;;;;;;7.93;3.53;;;20.10;99.90;;;;;;5042398;28;20025;-82
2022/06/23 03:20:21;;;;;;;6.13;3.42;;;20.00;99.90;;;;;;5040143;28;20033;-83
2022/06/23 03:23:27;;;;;;;8.48;3.63;;;19.90;99.90;;;;;;5051348;28;20017;-83
2022/06/23 03:26:07;;;;;;;5.90;2.88;;;19.80;99.90;;;;;;5041601;28;20124;-81
2022/06/23 03:28:50;;;;;;;9.30;3.20;;;19.80;99.90;;;;;;5041600;28;20021;-84
2022/06/23 03:31:29;;;;;;;4.97;3.38;;;19.80;99.90;;;;;;5024618;28;20022;-83
2022/06/23 03:34:21;;;;;;;5.43;2.90;;;19.80;99.90;;;;;;5042229;28;20025;-84
2022/06/23 03:36:59;;;;;;;6.53;3.15;;;19.80;99.90;;;;;;5042140;28;20036;-82
2022/06/23 03:43:00;;;;;;;7.43;3.33;;;19.80;99.90;;;;;;4980106;28;20065;-84
2022/06/23 03:45:26;;;;;;;;;;;19.70;99.90;;;;;;5042490;28;20117;-83
2022/06/23 03:48:01;;;;;;;6.63;3.35;;;19.70;99.90;;;;;;5044650;28;19905;-82
2022/06/23 03:50:39;;;;;;;8.73;3.50;;;19.60;99.90;;;;;;5033060;28;20029;-82
2022/06/23 03:53:17;;;;;;;6.97;2.90;;;19.60;99.90;;;;;;5031768;28;20022;-84
2022/06/23 03:55:54;;;;;;;5.00;2.92;;;19.60;99.90;;;;;;5033562;28;20026;-82
2022/06/23 03:58:29;;;;;;;7.03;3.85;;;19.60;99.90;;;;;;5032147;28;20049;-82
2022/06/23 04:01:04;;;;;;;7.68;3.60;;;19.60;99.90;;;;;;5049324;28;20025;-85
2022/06/23 04:03:51;;;;;;;4.55;3.22;;;19.50;99.90;;;;;;5032495;28;20085;-81
2022/06/23 04:06:38;;;;;;;10.43;3.85;;;19.50;99.90;;;;;;5041837;28;20052;-82
2022/06/23 04:09:34;;;;;;;12.63;4.07;;;19.40;99.90;;;;;;5024725;28;20026;-82
2022/06/23 04:12:13;;;;;;;8.27;3.85;;;19.30;99.90;;;;;;5029733;28;20034;-82
2022/06/23 04:14:42;;;;;;;6.32;3.55;;;19.30;99.90;;;;;;5042018;28;20036;-83
2022/06/23 04:17:32;;;;;;;7.93;3.88;;;19.30;99.90;;;;;;5044223;28;20071;-83
2022/06/23 04:20:40;;;;;;;6.25;3.65;;;19.30;99.90;;;;;;5025249;28;20026;-84
2022/06/23 04:23:36;;;;;;;5.10;3.05;;;19.30;99.90;;;;;;5030607;28;20041;-85
2022/06/23 04:26:14;;;;;;;10.88;3.53;;;19.30;99.90;;;;;;5042394;28;20022;-84
2022/06/23 04:28:47;;;;;;;9.50;4.22;;;19.40;99.90;;;;;;5044889;28;20031;-85
2022/06/23 04:31:18;;;;;;;4.90;3.10;;;19.40;99.90;;;;;;5043840;28;20024;-84
2022/06/23 04:33:46;;;;;;;6.30;3.97;;;19.60;99.90;;;;;;5043948;28;20045;-84
2022/06/23 04:36:48;;;;;;;6.57;3.92;;;19.70;99.90;;;;;;5047350;28;20025;-85
2022/06/23 04:39:37;;;;;;;3.80;2.77;;;19.90;99.90;;;;;;4987993;28;20028;-84
2022/06/23 04:42:25;;;;;;;2.95;2.60;;;20.10;99.90;;;;;;5030033;28;20041;-83
2022/06/23 04:44:55;;;;;;;3.80;2.83;;;20.20;99.90;;;;;;5032583;28;20030;-81
2022/06/23 04:47:25;;;;;;;5.13;2.70;;;20.30;99.90;;;;;;5032452;28;20116;-82
2022/06/23 04:49:57;;;;;;;4.47;2.90;;;20.20;99.90;;;;;;5016040;28;20049;-81
2022/06/23 04:52:29;;;;;;;4.10;2.63;;;20.30;99.90;;;;;;5033713;28;20068;-83
2022/06/23 04:55:09;;;;;;;4.18;3.25;;;20.30;99.90;;;;;;5032453;28;20022;-82
2022/06/23 04:57:59;;;;;;;4.15;2.83;;;20.20;99.90;;;;;;5030267;28;20447;-82
2022/06/23 05:00:37;;;;;;;10.38;3.58;;;20.30;99.90;;;;;;5032189;28;20033;-82
2022/06/23 05:03:35;;;;;;;5.03;3.38;;;20.40;99.90;;;;;;5032114;28;20086;-82
2022/06/23 05:06:29;;;;;;;8.05;3.85;;;20.60;99.90;;;;;;5011677;28;20084;-83
2022/06/23 05:09:01;;;;;;;7.55;2.90;;;20.80;99.90;;;;;;5033029;28;20022;-83
2022/06/23 05:11:41;;;;;;;9.90;3.47;;;22.50;99.90;;;;;;5030079;28;20022;-84
2022/06/23 05:14:20;;;;;;;7.50;3.22;;;25.60;93.50;;;;;;5010373;28;20029;-84
2022/06/23 05:16:50;;;;;;;3.47;2.63;;;28.30;84.60;;;;;;5033299;28;20017;-84
2022/06/23 05:19:28;;;;;;;6.47;3.03;;;30.20;72.10;;;;;;5033297;28;20025;-84
2022/06/23 05:22:00;;;;;;;2.50;2.08;;;31.50;65.40;;;;;;5062370;28;20389;-84
2022/06/23 05:24:34;;;;;;;2.58;2.05;;;33.10;60.40;;;;;;5070630;28;20055;-84
2022/06/23 05:27:06;;;;;;;3.13;2.47;;;34.20;56.30;;;;;;5068176;28;20028;-81
2022/06/23 05:29:41;;;;;;;2.50;2.28;;;35.10;53.20;;;;;;5041325;28;20378;-82
2022/06/23 05:32:21;;;;;;;2.80;2.03;;;35.70;51.00;;;;;;5049504;28;20087;-81
2022/06/23 05:34:57;;;;;;;5.72;2.75;;;36.10;49.70;;;;;;5030771;28;20089;-80
2022/06/23 05:37:41;;;;;;;4.65;2.38;;;36.60;49.10;;;;;;5028082;28;20022;-82
2022/06/23 05:40:23;;;;;;;3.85;1.88;;;37.10;47.70;;;;;;5036443;28;20034;-81
2022/06/23 05:42:54;;;;;;;6.10;2.38;;;37.60;46.10;;;;;;5048683;28;20029;-83
2022/06/23 05:45:26;;;;;;;3.60;2.00;;;37.70;45.10;;;;;;5047790;28;20017;-82
2022/06/23 05:47:53;;;;;;;4.60;2.05;;;38.10;44.60;;;;;;5048436;28;20025;-82
2022/06/23 05:50:31;;;;;;;4.80;2.40;;;38.20;43.60;;;;;;5049281;28;20035;-83
2022/06/23 05:53:26;;;;;;;6.30;2.60;;;37.60;43.40;;;;;;5031414;28;20022;-83
2022/06/23 05:56:00;;;;;;;3.75;1.73;;;36.70;44.30;;;;;;5011492;28;20041;-83
2022/06/23 05:58:41;;;;;;;4.85;2.35;;;37.00;44.70;;;;;;5049304;28;20033;-82
2022/06/23 06:01:13;;;;;;;;;;;37.70;43.90;;;;;;5050042;28;20022;-82
2022/06/23 06:04:01;;;;;;;4.75;2.22;;;38.40;43.60;;;;;;5049535;28;19916;-80
2022/06/23 06:06:27;;;;;;;4.93;2.75;;;38.90;42.80;;;;;;5049018;28;20029;-83
2022/06/23 06:11:51;;;;;;;5.97;2.63;;;37.90;42.00;;;;;;5048996;28;20017;-82
2022/06/23 06:14:21;;;;;;;3.35;2.05;;;37.40;43.80;;;;;;5032382;28;20053;-82
2022/06/23 06:16:47;;;;;;;2.50;1.75;;;38.10;43.20;;;;;;5050784;28;20045;-82
2022/06/23 06:19:15;;;;;;;3.30;2.00;;;38.80;42.10;;;;;;5049674;28;20038;-81
2022/06/23 06:21:42;;;;;;;2.63;2.00;;;39.30;41.60;;;;;;5032869;28;20497;-81
2022/06/23 06:24:20;;;;;;;2.90;2.03;;;38.80;41.10;;;;;;5049581;28;20073;-82
2022/06/23 06:26:50;;;;;;;3.58;2.05;;;39.20;41.20;;;;;;5053722;28;20020;-80
2022/06/23 06:29:32;;;;;;;5.60;2.77;;;39.70;40.30;;;;;;5054967;28;20080;-81
2022/06/23 06:32:26;;;;;;;4.88;2.47;;;38.40;40.80;;;;;;5038393;28;20028;-79
2022/06/23 06:35:16;;;;;;;8.10;2.90;;;36.90;41.70;;;;;;5054449;28;20035;-81
2022/06/23 06:37:50;;;;;;;4.88;2.45;;;35.00;44.20;;;;;;5048737;28;20095;-80
2022/06/23 06:40:17;;;;;;;8.88;3.35;;;33.50;47.50;;;;;;5052373;28;20029;-80
2022/06/23 06:42:47;;;;;;;6.20;2.45;;;34.40;46.70;;;;;;5051802;28;20041;-80
2022/06/23 06:45:17;;;;;;;5.18;2.47;;;34.50;45.80;;;;;;5033930;28;20093;-81
2022/06/23 06:47:44;;;;;;;11.55;3.50;;;32.70;48.00;;;;;;5051057;28;20021;-80
2022/06/23 06:50:35;;;;;;;6.38;2.70;;;32.00;49.20;;;;;;5051258;28;20060;-80
2022/06/23 06:53:06;;;;;;;4.38;2.40;;;33.00;49.20;;;;;;5051706;28;20022;-80
2022/06/23 06:55:44;;;;;;;7.13;2.42;;;34.80;47.90;;;;;;5052569;28;20057;-80
2022/06/23 06:58:33;;;;;;;5.57;2.55;;;36.60;45.20;;;;;;5033138;28;20014;-83
2022/06/23 07:01:21;;;;;;;3.65;1.80;;;37.60;43.50;;;;;;5034919;28;20029;-79
2022/06/23 07:03:53;;;;;;;3.20;2.10;;;38.00;42.20;;;;;;5054271;28;20022;-79
2022/06/23 07:06:27;;;;;;;;;;;37.70;41.90;;;;;;5055323;28;20021;-78
2022/06/23 07:09:16;;;;;;;2.67;1.75;;;37.60;41.90;;;;;;5054250;28;19913;-79
2022/06/23 07:11:52;;;;;;;2.92;1.60;;;35.90;42.60;;;;;;5049421;28;20029;-82
2022/06/23 07:14:25;;;;;;;4.25;2.22;;;33.50;45.60;;;;;;5045464;28;20040;-82
2022/06/23 07:16:59;;;;;;;4.65;2.10;;;33.90;47.70;;;;;;5027356;28;20116;-83
2022/06/23 07:19:30;;;;;;;2.85;1.95;;;34.10;45.20;;;;;;5038755;28;20021;-83
2022/06/23 07:22:02;;;;;;;;;;;32.20;46.90;;;;;;5029743;28;20027;-82
2022/06/23 07:24:32;;;;;;;;;;;30.80;49.30;;;;;;5028113;28;19968;-82
2022/06/23 07:27:20;;;;;;;4.90;2.40;;;29.00;52.60;;;;;;5026581;28;20012;-82
2022/06/23 07:29:51;;;;;;;5.40;2.08;;;27.60;55.50;;;;;;5037932;28;20057;-81
2022/06/23 07:32:32;;;;;;;4.47;2.08;;;26.60;58.00;;;;;;5046489;28;20390;-82
2022/06/23 07:35:38;;;;;;;4.60;2.25;;;26.30;63.70;;;;;;5045814;28;20029;-80
2022/06/23 07:38:16;;;;;;;12.45;3.88;;;26.10;63.10;;;;;;5045536;28;20017;-80
2022/06/23 07:41:01;;;;;;;7.68;2.95;;;25.90;63.00;;;;;;5045234;28;20029;-81
2022/06/23 07:43:37;;;;;;;11.15;3.35;;;25.70;63.70;;;;;;5046380;28;20032;-81
2022/06/23 07:46:03;;;;;;;11.38;3.88;;;25.60;64.90;;;;;;5044825;28;20037;-82
2022/06/23 07:48:33;;;;;;;8.60;3.22;;;25.20;65.90;;;;;;5043509;28;20052;-81
2022/06/23 07:51:02;;;;;;;9.35;3.28;;;24.90;67.10;;;;;;5044777;28;20474;-80
2022/06/23 07:53:33;;;;;;;10.85;3.13;;;24.70;67.40;;;;;;5044402;28;20053;-82
2022/06/23 07:56:00;;;;;;;11.30;4.03;;;24.40;68.90;;;;;;5026520;28;20025;-81
2022/06/23 07:58:29;;;;;;;6.00;2.58;;;24.40;70.40;;;;;;5044576;28;20434;-81
2022/06/23 08:01:04;;;;;;;5.80;2.70;;;24.60;69.60;;;;;;5046300;28;20049;-81
2022/06/23 08:03:55;;;;;;;12.10;3.90;;;24.80;68.80;;;;;;5044037;28;20029;-82
2022/06/23 08:06:21;;;;;;;10.55;4.07;;;24.90;68.10;;;;;;5044674;28;20067;-82
2022/06/23 08:08:50;;;;;;;13.65;4.10;;;24.90;68.40;;;;;;5044652;28;20029;-81
2022/06/23 08:14:11;;;;;;;9.40;3.20;;;24.80;68.20;;;;;;5047054;28;20044;-82
2022/06/23 08:16:50;;;;;;;15.35;4.07;;;24.60;69.20;;;;;;5044638;28;20036;-81
2022/06/23 08:19:48;;;;;;;6.82;2.85;;;24.70;69.60;;;;;;5044408;28;20060;-81
2022/06/23 08:22:16;;;;;;;9.25;3.10;;;24.80;69.30;;;;;;5042546;28;20044;-81
2022/06/23 08:24:48;;;;;;;10.52;2.80;;;25.00;69.10;;;;;;5043311;28;20048;-81
2022/06/23 08:27:18;;;;;;;5.72;2.78;;;25.10;68.50;;;;;;5044251;28;20040;-81
2022/06/23 08:29:55;;;;;;;5.32;2.47;;;25.10;68.90;;;;;;5044031;28;20482;-81
2022/06/23 08:32:22;;;;;;;12.57;3.92;;;25.10;68.60;;;;;;5043854;28;20471;-82
2022/06/23 08:34:55;;;;;;;10.18;3.92;;;25.10;68.70;;;;;;5042461;28;20025;-83
2022/06/23 08:37:23;;;;;;;8.63;3.45;;;25.00;68.60;;;;;;5023286;28;20078;-81
2022/06/23 08:40:28;;;;;;;10.63;2.97;;;24.90;69.30;;;;;;5041448;28;20017;-82
2022/06/23 08:43:00;;;;;;;7.68;2.72;;;24.80;69.60;;;;;;5038842;28;20041;-82
2022/06/23 08:45:44;;;;;;;;;;;24.90;70.50;;;;;;5042356;28;20056;-83
2022/06/23 08:48:54;;;;;;;8.05;2.53;;;24.90;69.30;;;;;;5040176;28;19951;-82
2022/06/23 08:51:28;;;;;;;8.80;3.13;;;25.00;69.30;;;;;;4992204;28;20037;-82
2022/06/23 08:54:22;;;;;;;6.45;2.08;;;25.30;69.00;;;;;;5023802;28;20486;-83
2022/06/23 08:57:06;;;;;;;7.25;2.55;;;25.60;67.40;;;;;;5023518;28;20030;-82
2022/06/23 08:59:50;;;;;;;4.20;2.33;;;25.80;66.10;;;;;;5022811;28;20044;-83
2022/06/23 09:02:38;;;;;;;2.95;2.05;;;26.00;64.60;;;;;;5009285;28;20522;-81
2022/06/23 09:05:25;;;;;;;3.10;1.58;;;26.20;63.80;;;;;;5024588;28;20033;-83
2022/06/23 09:08:27;;;;;;;4.30;1.95;;;26.30;63.20;;;;;;5042633;28;20131;-82
2022/06/23 09:11:02;;;;;;;;;;;26.50;62.60;;;;;;5045141;28;20029;-82
2022/06/23 09:14:05;;;;;;;8.90;3.63;;;26.50;62.20;;;;;;5041798;28;19905;-82
2022/06/23 09:16:45;;;;;;;6.57;3.15;;;26.60;60.90;;;;;;5023901;28;20030;-81
2022/06/23 09:19:17;;;;;;;9.02;3.10;;;26.50;61.20;;;;;;5042062;28;20025;-84
2022/06/23 09:22:10;;;;;;;10.43;2.40;;;26.50;61.60;;;;;;5043561;28;20028;-84
2022/06/23 09:24:41;;;;;;;4.60;1.70;;;26.50;62.00;;;;;;5026267;28;20034;-83
2022/06/23 09:27:25;;;;;;;6.47;3.08;;;26.70;60.60;;;;;;5024501;28;20120;-85
2022/06/23 09:30:01;;;;;;;6.30;2.22;;;26.80;59.90;;;;;;5035150;28;20026;-81
2022/06/23 09:32:43;;;;;;;6.35;2.47;;;26.70;59.50;;;;;;5049250;28;20026;-83
2022/06/23 09:35:29;;;;;;;3.92;2.05;;;26.80;59.20;;;;;;5045399;28;20034;-83
2022/06/23 09:38:05;;;;;;;4.30;1.90;;;26.80;59.70;;;;;;5044488;28;20021;-82
2022/06/23 09:40:56;;;;;;;3.97;2.28;;;26.90;59.70;;;;;;5026358;28;20017;-84
2022/06/23 09:44:00;;;;;;;6.50;2.45;;;27.10;59.10;;;;;;5041638;28;20100;-83
2022/06/23 09:46:35;;;;;;;8.52;2.30;;;27.00;58.70;;;;;;5024779;28;20034;-84
2022/06/23 09:49:06;;;;;;;6.13;2.30;;;27.20;58.20;;;;;;5041774;28;20022;-83
2022/06/23 09:51:32;;;;;;;;;;;27.40;57.40;;;;;;5041541;28;20025;-83
2022/06/23 09:54:03;;;;;;;8.55;3.58;;;27.50;57.00;;;;;;5041248;28;19925;-83
2022/06/23 09:56:53;;;;;;;9.57;2.72;;;27.60;56.70;;;;;;5042853;28;20018;-84
2022/06/23 09:59:49;;;;;;;3.28;1.98;;;27.60;56.70;;;;;;5042882;28;20506;-84
2022/06/23 10:02:30;;;;;;;2.35;1.85;;;27.70;56.90;;;;;;5024451;28;20025;-84
2022/06/23 10:05:11;;;;;;;7.47;3.30;;;28.10;56.80;;;;;;5045690;28;20163;-83
2022/06/23 10:07:55;;;;;;;8.05;2.50;;;28.50;56.00;;;;;;5048771;28;20025;-84
2022/06/23 10:11:13;;;;;;;7.65;2.25;;;28.70;55.30;;;;;;5044071;28;20033;-83
2022/06/23 10:13:57;;;;;;;6.53;2.10;;;28.80;54.40;;;;;;4982426;28;20102;-82
2022/06/23 10:17:22;;;;;;;7.13;2.50;;;28.80;54.30;;;;;;4966195;28;20027;-85
2022/06/23 10:20:13;;;;;;;9.07;3.17;;;28.70;54.50;;;;;;4976446;28;20046;-85
2022/06/23 10:23:17;;;;;;;10.57;2.95;;;28.70;55.30;;;;;;5048548;28;20017;-83
2022/06/23 10:25:45;;;;;;;7.53;2.33;;;28.70;55.30;;;;;;4958269;29;20042;-85
2022/06/23 10:28:20;;;;;;;9.48;2.33;;;28.50;55.10;;;;;;4947691;29;20130;-81
2022/06/23 10:30:56;;;;;;;10.45;2.47;;;28.60;55.20;;;;;;4968847;28;20092;-83
2022/06/23 10:33:29;;;;;;;6.97;2.42;;;28.70;55.30;;;;;;5021922;28;20022;-83
2022/06/23 10:36:16;;;;;;;7.63;2.20;;;28.90;55.30;;;;;;5032347;28;20030;-81
2022/06/23 10:38:51;;;;;;;7.65;2.38;;;29.30;55.00;;;;;;5042764;28;20045;-82
2022/06/23 10:41:34;;;;;;;5.80;2.30;;;29.50;53.30;;;;;;5042402;28;20454;-82
2022/06/23 10:44:31;;;;;;;9.80;2.40;;;29.80;53.40;;;;;;5042936;28;20457;-82
2022/06/23 10:47:05;;;;;;;9.00;3.22;;;30.10;53.40;;;;;;5038493;28;20096;-82
2022/06/23 10:49:55;;;;;;;5.25;2.70;;;30.00;53.30;;;;;;5039004;28;20120;-82
2022/06/23 10:52:44;;;;;;;4.18;1.98;;;30.00;53.40;;;;;;5040303;28;20025;-81
2022/06/23 10:55:27;;;;;;;3.90;2.50;;;30.40;52.70;;;;;;5041239;28;20089;-83
2022/06/23 10:58:31;;;;;;;10.00;2.90;;;30.90;52.10;;;;;;5042116;28;20536;-81
2022/06/23 11:01:02;;;;;;;9.25;3.10;;;30.90;51.60;;;;;;5038864;28;20113;-82
2022/06/23 11:04:22;;;;;;;7.65;3.30;;;30.70;51.70;;;;;;5041479;28;20025;-81
2022/06/23 11:07:36;;;;;;;5.82;2.65;;;30.70;51.70;;;;;;4972032;28;20055;-82
2022/06/23 11:10:26;;;;;;;8.05;2.83;;;30.40;51.40;;;;;;5022595;28;20037;-81
2022/06/23 11:13:02;;;;;;;8.13;2.97;;;30.20;52.30;;;;;;5022593;28;20018;-80
2022/06/23 11:15:53;;;;;;;10.15;2.67;;;30.50;52.50;;;;;;5004179;28;20028;-81
2022/06/23 11:18:30;;;;;;;11.55;2.33;;;30.70;51.60;;;;;;5029181;28;20034;-82
2022/06/23 11:21:16;;;;;;;8.15;3.15;;;30.90;51.10;;;;;;5020450;28;20029;-82
2022/06/23 11:23:49;;;;;;;8.00;2.05;;;30.90;50.70;;;;;;5003529;28;20021;-82
2022/06/23 11:26:53;;;;;;;8.30;2.42;;;30.90;50.80;;;;;;5005605;28;20029;-82
2022/06/23 11:29:45;;;;;;;6.10;2.28;;;31.00;50.40;;;;;;5023717;28;20056;-82
2022/06/23 11:32:11;;;;;;;;;;;30.70;50.20;;;;;;5025181;28;20034;-82
2022/06/23 11:35:01;;;;;;;6.22;2.67;;;30.40;50.70;;;;;;5024183;28;19909;-82
2022/06/23 11:37:30;;;;;;;2.97;1.60;;;30.20;51.00;;;;;;5027320;28;20030;-84
2022/06/23 11:40:16;;;;;;;5.13;2.05;;;30.30;51.60;;;;;;5047567;28;20124;-84
2022/06/23 11:42:48;;;;;;;6.65;1.95;;;30.30;52.10;;;;;;5045224;28;20037;-82
2022/06/23 11:45:37;;;;;;;3.83;2.30;;;30.50;51.30;;;;;;5046349;28;20086;-83
2022/06/23 11:48:25;;;;;;;4.53;2.15;;;31.00;50.20;;;;;;5044327;28;20021;-82
2022/06/23 11:51:14;;;;;;;6.93;2.22;;;31.60;48.50;;;;;;5038891;28;20022;-83
2022/06/23 11:53:51;;;;;;;4.18;1.92;;;32.10;47.70;;;;;;5047887;28;20276;-84
2022/06/23 11:56:37;;;;;;;4.22;2.10;;;32.50;47.50;;;;;;5032276;28;20049;-82
2022/06/23 11:59:27;;;;;;;5.95;2.47;;;32.70;46.70;;;;;;5048918;28;20045;-83
2022/06/23 12:01:54;;;;;;;6.03;2.20;;;32.30;46.60;;;;;;5045758;28;20033;-83
2022/06/23 12:04:36;;;;;;;6.72;2.47;;;32.20;47.00;;;;;;5044433;28;20030;-84
2022/06/23 12:07:14;;;;;;;5.30;2.45;;;32.10;46.90;;;;;;5047156;28;20018;-83
2022/06/23 12:09:51;;;;;;;10.13;2.85;;;31.90;47.30;;;;;;5046520;28;20024;-82
2022/06/23 12:12:17;;;;;;;8.55;2.17;;;31.60;47.00;;;;;;5047494;28;20027;-84
2022/06/23 12:14:43;;;;;;;8.82;2.63;;;31.30;47.50;;;;;;5030792;28;20034;-81
2022/06/23 12:17:43;;;;;;;9.32;2.38;;;31.20;47.30;;;;;;5050320;28;20022;-81
2022/06/23 12:20:31;;;;;;;8.45;2.33;;;31.10;47.70;;;;;;5020552;28;20049;-82
2022/06/23 12:23:15;;;;;;;7.20;2.35;;;31.20;47.10;;;;;;5011288;28;20422;-81
2022/06/23 12:26:04;;;;;;;10.13;2.45;;;30.90;47.60;;;;;;5030318;28;20129;-81
2022/06/23 12:28:45;;;;;;;6.40;2.13;;;30.80;48.60;;;;;;5016064;28;20025;-81
2022/06/23 12:31:11;;;;;;;4.60;2.05;;;31.30;47.60;;;;;;5047042;28;20458;-83
2022/06/23 12:34:03;;;;;;;5.35;1.98;;;31.80;46.30;;;;;;5047345;28;20048;-82
2022/06/23 12:36:47;;;;;;;6.55;2.30;;;31.80;46.20;;;;;;5048467;28;20040;-82
2022/06/23 12:39:41;;;;;;;6.60;2.75;;;32.00;46.40;;;;;;5050162;28;20041;-83
2022/06/23 12:42:12;;;;;;;4.55;1.92;;;32.30;46.70;;;;;;5048647;28;20025;-82
2022/06/23 12:44:50;;;;;;;7.72;2.70;;;32.60;44.90;;;;;;5053373;28;20068;-83
2022/06/23 12:47:46;;;;;;;8.13;3.08;;;32.60;45.10;;;;;;5046905;28;20017;-82
2022/06/23 12:50:38;;;;;;;11.40;2.92;;;32.30;45.40;;;;;;5033713;28;20028;-81
2022/06/23 12:53:23;;;;;;;12.35;3.35;;;32.00;48.40;;;;;;5056008;28;20021;-82
2022/06/23 12:56:12;;;;;;;13.45;3.08;;;31.70;49.60;;;;;;5061229;28;20036;-83
2022/06/23 12:59:16;;;;;;;14.20;3.58;;;31.40;50.00;;;;;;5061101;28;20029;-82
2022/06/23 13:01:51;;;;;;;11.73;3.20;;;31.10;50.90;;;;;;4946624;29;20050;-82
2022/06/23 13:04:56;;;;;;;13.13;3.30;;;31.10;50.70;;;;;;5018798;28;20037;-82
2022/06/23 13:07:33;;;;;;;11.70;3.60;;;30.90;50.10;;;;;;5023267;28;20064;-83
2022/06/23 13:10:10;;;;;;;10.57;3.65;;;30.70;51.50;;;;;;5040689;28;20048;-82
2022/06/23 13:13:08;;;;;;;10.68;2.97;;;30.00;52.30;;;;;;5043238;28;20105;-82
2022/06/23 13:15:59;;;;;;;9.07;3.00;;;29.80;54.00;;;;;;5040749;28;20022;-82
2022/06/23 13:18:40;;;;;;;11.95;3.45;;;29.80;54.60;;;;;;5032530;28;20041;-82
2022/06/23 13:21:15;;;;;;;12.90;3.60;;;29.70;55.70;;;;;;5041075;28;20030;-82
2022/06/23 13:23:49;;;;;;;11.30;3.00;;;29.80;55.10;;;;;;5023791;28;20112;-83
2022/06/23 13:26:24;;;;;;;9.43;3.72;;;29.80;55.00;;;;;;5022422;28;20140;-81
2022/06/23 13:28:58;;;;;;;14.68;3.40;;;29.80;54.70;;;;;;5040989;28;20108;-82
2022/06/23 13:31:31;;;;;;;11.30;3.22;;;29.90;55.30;;;;;;5039847;28;20033;-83
2022/06/23 13:34:27;;;;;;;11.48;3.50;;;29.90;55.80;;;;;;5040476;28;20033;-83
2022/06/23 13:37:08;;;;;;;10.98;2.95;;;29.90;55.20;;;;;;5041081;28;20537;-82
2022/06/23 13:40:04;;;;;;;10.23;3.10;;;29.80;55.80;;;;;;5039576;28;20026;-82
2022/06/23 13:42:33;;;;;;;10.20;3.40;;;29.90;55.30;;;;;;5038636;28;20029;-83
2022/06/23 13:45:08;;;;;;;13.30;3.25;;;30.10;55.60;;;;;;5039941;28;20029;-81
2022/06/23 13:48:05;;;;;;;13.02;3.83;;;30.20;55.90;;;;;;5038800;28;20472;-82
2022/06/23 13:50:31;;;;;;;9.15;3.15;;;30.10;56.10;;;;;;5038976;28;20064;-82
2022/06/23 13:53:04;;;;;;;15.25;4.13;;;30.00;56.10;;;;;;5038383;28;20056;-82
2022/06/23 13:55:46;;;;;;;15.32;4.10;;;29.60;57.00;;;;;;5038812;28;20520;-81
2022/06/23 13:58:31;;;;;;;;;;;29.40;56.90;;;;;;5021366;28;20390;-82
2022/06/23 14:01:07;;;;;;;18.02;4.05;;;29.50;57.70;;;;;;5041764;28;20169;-81
2022/06/23 14:04:04;;;;;;;12.50;3.33;;;29.40;57.50;;;;;;5039508;28;20121;-82
2022/06/23 14:06:30;;;;;;;10.18;3.20;;;29.40;57.90;;;;;;5039033;28;20017;-81
2022/06/23 14:09:05;;;;;;;10.02;3.28;;;29.70;57.90;;;;;;5022127;28;20022;-82